Terminal Aerodrome Forecast
Issued by NWS

Home | Current Version | Previous Version | Text Only | Print | Product List | Glossary On
Versions: 1 2 3 4 5 6 7 8 9 10 11 12
767
FTUS42 KMLB 221136
TAFFPR
TAF
KFPR 221136Z 2212/2312 28004KT P6SM SCT250
     FM221400 31006KT P6SM FEW030 SCT250
     FM221800 05009KT P6SM VCTS SCT040CB
     FM230000 10007KT P6SM VCSH FEW030 SCT060 BKN100
     FM230300 08004KT P6SM FEW060 SCT250=

USA.gov is the U.S. government's official web portal to all federal, state and local government web resources and services.